sensor_id;sensor_type;location;lat;lon;timestamp;temperature;humidity
38798;SHT11;24546;52.240;16.826;2022-11-04T00:02:17;10.60;99.90
38798;SHT11;24546;52.240;16.826;2022-11-04T00:07:17;10.50;99.90
38798;SHT11;24546;52.240;16.826;2022-11-04T00:12:37;10.70;99.90
38798;SHT11;24546;52.240;16.826;2022-11-04T00:17:38;10.40;99.90
38798;SHT11;24546;52.240;16.826;2022-11-04T00:22:40;10.50;99.90
38798;SHT11;24546;52.240;16.826;2022-11-04T00:28:09;10.30;99.90
38798;SHT11;24546;52.240;16.826;2022-11-04T00:33:29;10.30;99.90
38798;SHT11;24546;52.240;16.826;2022-11-04T00:38:30;10.30;99.90
38798;SHT11;24546;52.240;16.826;2022-11-04T00:43:31;10.30;99.90
38798;SHT11;24546;52.240;16.826;2022-11-04T00:48:31;10.20;99.90
38798;SHT11;24546;52.240;16.826;2022-11-04T00:53:32;10.20;99.90
38798;SHT11;24546;52.240;16.826;2022-11-04T00:58:33;10.20;99.90
38798;SHT11;24546;52.240;16.826;2022-11-04T01:03:34;10.20;99.90
38798;SHT11;24546;52.240;16.826;2022-11-04T01:08:35;10.10;99.90
38798;SHT11;24546;52.240;16.826;2022-11-04T01:13:36;10.40;99.90
38798;SHT11;24546;52.240;16.826;2022-11-04T01:18:40;10.00;99.90
38798;SHT11;24546;52.240;16.826;2022-11-04T01:23:42;10.10;99.90
38798;SHT11;24546;52.240;16.826;2022-11-04T01:28:44;10.10;99.90
38798;SHT11;24546;52.240;16.826;2022-11-04T01:33:46;10.00;99.90
38798;SHT11;24546;52.240;16.826;2022-11-04T01:38:47;10.00;99.90
38798;SHT11;24546;52.240;16.826;2022-11-04T01:44:01;10.00;99.90
38798;SHT11;24546;52.240;16.826;2022-11-04T01:49:24;10.00;99.90
38798;SHT11;24546;52.240;16.826;2022-11-04T01:54:26;10.00;99.90
38798;SHT11;24546;52.240;16.826;2022-11-04T01:59:32;10.00;99.90
38798;SHT11;24546;52.240;16.826;2022-11-04T02:04:35;10.00;99.90
38798;SHT11;24546;52.240;16.826;2022-11-04T02:09:38;10.20;99.90
38798;SHT11;24546;52.240;16.826;2022-11-04T02:14:40;9.80;99.90
38798;SHT11;24546;52.240;16.826;2022-11-04T02:20:17;9.90;99.90
38798;SHT11;24546;52.240;16.826;2022-11-04T02:30:34;9.60;99.90
38798;SHT11;24546;52.240;16.826;2022-11-04T02:51:31;9.60;99.90
38798;SHT11;24546;52.240;16.826;2022-11-04T02:56:37;9.50;99.90
38798;SHT11;24546;52.240;16.826;2022-11-04T03:01:41;9.50;99.90
38798;SHT11;24546;52.240;16.826;2022-11-04T03:06:44;9.50;99.90
38798;SHT11;24546;52.240;16.826;2022-11-04T03:11:50;9.40;99.90
38798;SHT11;24546;52.240;16.826;2022-11-04T03:16:57;9.50;99.90
38798;SHT11;24546;52.240;16.826;2022-11-04T03:22:10;9.30;99.90
38798;SHT11;24546;52.240;16.826;2022-11-04T03:27:22;9.20;99.90
38798;SHT11;24546;52.240;16.826;2022-11-04T03:32:31;9.10;99.90
38798;SHT11;24546;52.240;16.826;2022-11-04T03:37:35;9.30;99.90
38798;SHT11;24546;52.240;16.826;2022-11-04T03:42:41;9.10;99.90
38798;SHT11;24546;52.240;16.826;2022-11-04T03:47:43;8.90;99.90
38798;SHT11;24546;52.240;16.826;2022-11-04T03:52:44;9.20;99.90
38798;SHT11;24546;52.240;16.826;2022-11-04T03:58:26;9.00;99.90
38798;SHT11;24546;52.240;16.826;2022-11-04T04:03:32;9.30;99.90
38798;SHT11;24546;52.240;16.826;2022-11-04T04:08:44;8.90;99.90
38798;SHT11;24546;52.240;16.826;2022-11-04T04:14:06;8.90;99.90
38798;SHT11;24546;52.240;16.826;2022-11-04T04:19:13;8.90;99.90
38798;SHT11;24546;52.240;16.826;2022-11-04T04:24:17;9.00;99.90
38798;SHT11;24546;52.240;16.826;2022-11-04T04:29:38;9.00;99.90
38798;SHT11;24546;52.240;16.826;2022-11-04T04:34:40;8.80;99.90
38798;SHT11;24546;52.240;16.826;2022-11-04T04:39:44;9.10;99.90
38798;SHT11;24546;52.240;16.826;2022-11-04T04:45:06;8.90;99.90
38798;SHT11;24546;52.240;16.826;2022-11-04T04:50:08;8.70;99.90
38798;SHT11;24546;52.240;16.826;2022-11-04T04:55:11;8.60;99.90
38798;SHT11;24546;52.240;16.826;2022-11-04T05:00:15;8.60;99.90
38798;SHT11;24546;52.240;16.826;2022-11-04T05:05:16;8.60;99.90
38798;SHT11;24546;52.240;16.826;2022-11-04T05:10:18;8.60;99.90
38798;SHT11;24546;52.240;16.826;2022-11-04T05:15:19;8.60;99.90
38798;SHT11;24546;52.240;16.826;2022-11-04T05:20:19;8.70;99.90
38798;SHT11;24546;52.240;16.826;2022-11-04T05:25:20;8.70;99.90
38798;SHT11;24546;52.240;16.826;2022-11-04T05:30:21;8.50;99.90
38798;SHT11;24546;52.240;16.826;2022-11-04T05:35:22;8.80;99.90
38798;SHT11;24546;52.240;16.826;2022-11-04T05:40:24;8.50;99.90
38798;SHT11;24546;52.240;16.826;2022-11-04T05:51:50;8.40;99.90
38798;SHT11;24546;52.240;16.826;2022-11-04T05:56:51;8.40;99.90
38798;SHT11;24546;52.240;16.826;2022-11-04T06:01:53;8.40;99.90
38798;SHT11;24546;52.240;16.826;2022-11-04T06:06:54;8.30;99.90
38798;SHT11;24546;52.240;16.826;2022-11-04T06:11:55;8.50;99.90
38798;SHT11;24546;52.240;16.826;2022-11-04T06:16:56;8.70;99.90
38798;SHT11;24546;52.240;16.826;2022-11-04T06:21:58;8.50;99.90
38798;SHT11;24546;52.240;16.826;2022-11-04T06:26:59;8.50;99.90
38798;SHT11;24546;52.240;16.826;2022-11-04T06:32:00;8.70;99.90
38798;SHT11;24546;52.240;16.826;2022-11-04T06:37:01;8.80;99.90
38798;SHT11;24546;52.240;16.826;2022-11-04T06:42:02;8.80;99.90
38798;SHT11;24546;52.240;16.826;2022-11-04T06:47:04;9.30;99.90
38798;SHT11;24546;52.240;16.826;2022-11-04T06:52:05;9.10;99.90
38798;SHT11;24546;52.240;16.826;2022-11-04T06:57:10;9.10;99.90
38798;SHT11;24546;52.240;16.826;2022-11-04T07:02:11;9.10;99.90
38798;SHT11;24546;52.240;16.826;2022-11-04T07:07:13;9.40;99.90
38798;SHT11;24546;52.240;16.826;2022-11-04T07:12:14;9.50;99.90
38798;SHT11;24546;52.240;16.826;2022-11-04T07:17:15;9.50;99.90
38798;SHT11;24546;52.240;16.826;2022-11-04T07:22:16;9.80;99.90
38798;SHT11;24546;52.240;16.826;2022-11-04T07:27:17;9.60;99.90
38798;SHT11;24546;52.240;16.826;2022-11-04T07:32:20;9.90;99.90
38798;SHT11;24546;52.240;16.826;2022-11-04T07:37:21;10.30;99.90
38798;SHT11;24546;52.240;16.826;2022-11-04T07:42:22;10.30;99.90
38798;SHT11;24546;52.240;16.826;2022-11-04T07:47:29;10.40;99.90
38798;SHT11;24546;52.240;16.826;2022-11-04T07:52:31;10.70;99.90
38798;SHT11;24546;52.240;16.826;2022-11-04T07:57:32;11.10;99.90
38798;SHT11;24546;52.240;16.826;2022-11-04T08:02:33;11.50;99.90
38798;SHT11;24546;52.240;16.826;2022-11-04T08:07:34;11.50;99.90
38798;SHT11;24546;52.240;16.826;2022-11-04T08:12:35;11.70;99.90
38798;SHT11;24546;52.240;16.826;2022-11-04T08:17:37;11.90;99.90
38798;SHT11;24546;52.240;16.826;2022-11-04T08:22:38;12.20;99.90
38798;SHT11;24546;52.240;16.826;2022-11-04T08:27:39;12.60;99.90
38798;SHT11;24546;52.240;16.826;2022-11-04T08:32:40;12.40;99.90
38798;SHT11;24546;52.240;16.826;2022-11-04T08:37:41;12.40;99.90
38798;SHT11;24546;52.240;16.826;2022-11-04T08:42:42;12.40;99.90
38798;SHT11;24546;52.240;16.826;2022-11-04T08:47:43;12.70;99.90
38798;SHT11;24546;52.240;16.826;2022-11-04T08:52:44;12.80;99.90
38798;SHT11;24546;52.240;16.826;2022-11-04T08:57:45;12.90;99.90
38798;SHT11;24546;52.240;16.826;2022-11-04T09:02:46;13.00;99.90
38798;SHT11;24546;52.240;16.826;2022-11-04T09:07:47;12.90;99.90
38798;SHT11;24546;52.240;16.826;2022-11-04T09:12:47;13.30;99.90
38798;SHT11;24546;52.240;16.826;2022-11-04T09:17:48;13.20;99.90
38798;SHT11;24546;52.240;16.826;2022-11-04T09:22:50;13.30;99.90
38798;SHT11;24546;52.240;16.826;2022-11-04T09:27:52;13.30;99.90
38798;SHT11;24546;52.240;16.826;2022-11-04T09:32:53;13.30;99.90
38798;SHT11;24546;52.240;16.826;2022-11-04T09:37:54;13.40;99.90
38798;SHT11;24546;52.240;16.826;2022-11-04T09:43:31;13.50;99.90
38798;SHT11;24546;52.240;16.826;2022-11-04T09:48:41;13.60;99.90
38798;SHT11;24546;52.240;16.826;2022-11-04T09:53:54;13.70;99.90
38798;SHT11;24546;52.240;16.826;2022-11-04T09:58:57;13.70;99.90
38798;SHT11;24546;52.240;16.826;2022-11-04T10:30:47;13.90;99.90
38798;SHT11;24546;52.240;16.826;2022-11-04T10:36:04;14.00;99.90
38798;SHT11;24546;52.240;16.826;2022-11-04T10:41:27;13.90;99.90
38798;SHT11;24546;52.240;16.826;2022-11-04T10:46:57;13.90;99.90
38798;SHT11;24546;52.240;16.826;2022-11-04T10:52:00;13.90;99.90
38798;SHT11;24546;52.240;16.826;2022-11-04T10:57:01;13.90;99.90
38798;SHT11;24546;52.240;16.826;2022-11-04T11:02:02;14.20;99.90
38798;SHT11;24546;52.240;16.826;2022-11-04T11:07:07;14.40;99.90
38798;SHT11;24546;52.240;16.826;2022-11-04T11:17:35;14.10;99.90
38798;SHT11;24546;52.240;16.826;2022-11-04T11:22:41;14.30;99.90
38798;SHT11;24546;52.240;16.826;2022-11-04T11:27:51;14.50;99.90
38798;SHT11;24546;52.240;16.826;2022-11-04T11:32:56;14.60;99.90
38798;SHT11;24546;52.240;16.826;2022-11-04T11:37:59;14.90;99.90
38798;SHT11;24546;52.240;16.826;2022-11-04T11:43:03;15.10;99.90
38798;SHT11;24546;52.240;16.826;2022-11-04T11:53:33;15.10;99.90
38798;SHT11;24546;52.240;16.826;2022-11-04T11:58:43;14.90;99.90
38798;SHT11;24546;52.240;16.826;2022-11-04T12:03:47;14.80;99.90
38798;SHT11;24546;52.240;16.826;2022-11-04T12:25:31;14.80;99.90
38798;SHT11;24546;52.240;16.826;2022-11-04T12:30:45;14.90;99.90
38798;SHT11;24546;52.240;16.826;2022-11-04T12:46:38;14.90;99.90
38798;SHT11;24546;52.240;16.826;2022-11-04T12:57:22;15.10;99.90
38798;SHT11;24546;52.240;16.826;2022-11-04T13:03:08;15.20;99.90
38798;SHT11;24546;52.240;16.826;2022-11-04T13:13:41;15.10;99.90
38798;SHT11;24546;52.240;16.826;2022-11-04T13:18:44;15.00;99.90
38798;SHT11;24546;52.240;16.826;2022-11-04T13:23:51;15.20;99.90
38798;SHT11;24546;52.240;16.826;2022-11-04T13:29:08;15.10;99.90
38798;SHT11;24546;52.240;16.826;2022-11-04T13:39:46;14.80;99.90
38798;SHT11;24546;52.240;16.826;2022-11-04T13:44:52;14.80;99.90
38798;SHT11;24546;52.240;16.826;2022-11-04T13:49:56;14.60;99.90
38798;SHT11;24546;52.240;16.826;2022-11-04T13:55:15;14.60;99.90
38798;SHT11;24546;52.240;16.826;2022-11-04T14:00:24;14.70;99.90
38798;SHT11;24546;52.240;16.826;2022-11-04T14:21:21;14.80;99.90
38798;SHT11;24546;52.240;16.826;2022-11-04T14:26:41;14.70;99.90
38798;SHT11;24546;52.240;16.826;2022-11-04T14:31:49;14.70;99.90
38798;SHT11;24546;52.240;16.826;2022-11-04T14:37:16;14.80;99.90
38798;SHT11;24546;52.240;16.826;2022-11-04T14:42:48;14.70;99.90
38798;SHT11;24546;52.240;16.826;2022-11-04T14:48:09;14.50;99.90
38798;SHT11;24546;52.240;16.826;2022-11-04T14:53:32;14.30;99.90
38798;SHT11;24546;52.240;16.826;2022-11-04T14:58:35;14.20;99.90
38798;SHT11;24546;52.240;16.826;2022-11-04T15:03:37;14.20;99.90
38798;SHT11;24546;52.240;16.826;2022-11-04T15:13:48;14.10;99.90
38798;SHT11;24546;52.240;16.826;2022-11-04T15:18:55;13.80;99.90
38798;SHT11;24546;52.240;16.826;2022-11-04T15:23:59;13.50;99.90
38798;SHT11;24546;52.240;16.826;2022-11-04T15:29:07;13.10;99.90
38798;SHT11;24546;52.240;16.826;2022-11-04T15:34:10;13.10;99.90
38798;SHT11;24546;52.240;16.826;2022-11-04T15:40:19;13.20;99.90
38798;SHT11;24546;52.240;16.826;2022-11-04T15:44:53;13.30;99.90
38798;SHT11;24546;52.240;16.826;2022-11-04T15:50:03;13.50;99.90
38798;SHT11;24546;52.240;16.826;2022-11-04T15:55:23;13.30;99.90
38798;SHT11;24546;52.240;16.826;2022-11-04T16:00:26;13.10;99.90
38798;SHT11;24546;52.240;16.826;2022-11-04T16:05:33;13.10;99.90
38798;SHT11;24546;52.240;16.826;2022-11-04T16:10:36;13.10;99.90
38798;SHT11;24546;52.240;16.826;2022-11-04T16:26:07;13.30;99.90
38798;SHT11;24546;52.240;16.826;2022-11-04T16:36:21;13.40;99.90
38798;SHT11;24546;52.240;16.826;2022-11-04T16:41:28;13.60;99.90
38798;SHT11;24546;52.240;16.826;2022-11-04T16:46:31;13.40;99.90
38798;SHT11;24546;52.240;16.826;2022-11-04T16:51:33;13.40;99.90
38798;SHT11;24546;52.240;16.826;2022-11-04T16:56:36;13.40;99.90
38798;SHT11;24546;52.240;16.826;2022-11-04T17:01:38;13.30;99.90
38798;SHT11;24546;52.240;16.826;2022-11-04T17:06:39;13.30;99.90
38798;SHT11;24546;52.240;16.826;2022-11-04T17:11:40;13.40;99.90
38798;SHT11;24546;52.240;16.826;2022-11-04T17:16:42;13.40;99.90
38798;SHT11;24546;52.240;16.826;2022-11-04T17:21:46;13.40;99.90
38798;SHT11;24546;52.240;16.826;2022-11-04T17:26:47;13.20;99.90
38798;SHT11;24546;52.240;16.826;2022-11-04T17:31:48;13.20;99.90
38798;SHT11;24546;52.240;16.826;2022-11-04T17:36:50;13.10;99.90
38798;SHT11;24546;52.240;16.826;2022-11-04T17:41:54;13.10;99.90
38798;SHT11;24546;52.240;16.826;2022-11-04T17:47:14;13.10;99.90
38798;SHT11;24546;52.240;16.826;2022-11-04T17:52:14;13.10;99.90
38798;SHT11;24546;52.240;16.826;2022-11-04T17:57:16;12.80;99.90
38798;SHT11;24546;52.240;16.826;2022-11-04T18:02:17;12.80;99.90
38798;SHT11;24546;52.240;16.826;2022-11-04T18:07:18;12.80;99.90
38798;SHT11;24546;52.240;16.826;2022-11-04T18:12:19;12.80;99.90
38798;SHT11;24546;52.240;16.826;2022-11-04T18:17:40;12.80;99.90
38798;SHT11;24546;52.240;16.826;2022-11-04T18:22:42;12.80;99.90
38798;SHT11;24546;52.240;16.826;2022-11-04T18:27:43;12.80;99.90
38798;SHT11;24546;52.240;16.826;2022-11-04T18:32:44;12.70;99.90
38798;SHT11;24546;52.240;16.826;2022-11-04T18:37:46;12.70;99.90
38798;SHT11;24546;52.240;16.826;2022-11-04T18:42:47;12.60;99.90
38798;SHT11;24546;52.240;16.826;2022-11-04T18:47:48;12.50;99.90
38798;SHT11;24546;52.240;16.826;2022-11-04T18:52:53;12.50;99.90
38798;SHT11;24546;52.240;16.826;2022-11-04T18:57:54;12.50;99.90
38798;SHT11;24546;52.240;16.826;2022-11-04T19:02:55;12.50;99.90
38798;SHT11;24546;52.240;16.826;2022-11-04T19:07:56;12.50;99.90
38798;SHT11;24546;52.240;16.826;2022-11-04T19:12:58;12.50;99.90
38798;SHT11;24546;52.240;16.826;2022-11-04T19:18:17;12.50;99.90
38798;SHT11;24546;52.240;16.826;2022-11-04T19:23:18;12.40;99.90
38798;SHT11;24546;52.240;16.826;2022-11-04T19:28:20;12.40;99.90
38798;SHT11;24546;52.240;16.826;2022-11-04T19:33:21;12.40;99.90
38798;SHT11;24546;52.240;16.826;2022-11-04T19:38:22;12.30;99.90
38798;SHT11;24546;52.240;16.826;2022-11-04T19:43:26;12.30;99.90
38798;SHT11;24546;52.240;16.826;2022-11-04T19:48:28;12.30;99.90
38798;SHT11;24546;52.240;16.826;2022-11-04T19:53:30;12.30;99.90
38798;SHT11;24546;52.240;16.826;2022-11-04T19:58:31;12.30;99.90
38798;SHT11;24546;52.240;16.826;2022-11-04T20:03:33;12.10;99.90
38798;SHT11;24546;52.240;16.826;2022-11-04T20:08:35;12.10;99.90
38798;SHT11;24546;52.240;16.826;2022-11-04T20:13:47;12.10;99.90
38798;SHT11;24546;52.240;16.826;2022-11-04T20:18:57;12.00;99.90
38798;SHT11;24546;52.240;16.826;2022-11-04T20:24:07;12.20;99.90
38798;SHT11;24546;52.240;16.826;2022-11-04T20:29:11;12.20;99.90
38798;SHT11;24546;52.240;16.826;2022-11-04T20:34:13;12.20;99.90
38798;SHT11;24546;52.240;16.826;2022-11-04T20:39:16;12.20;99.90
38798;SHT11;24546;52.240;16.826;2022-11-04T20:44:17;12.20;99.90
38798;SHT11;24546;52.240;16.826;2022-11-04T20:49:19;12.20;99.90
38798;SHT11;24546;52.240;16.826;2022-11-04T20:54:22;12.20;99.90
38798;SHT11;24546;52.240;16.826;2022-11-04T20:59:24;12.10;99.90
38798;SHT11;24546;52.240;16.826;2022-11-04T21:04:25;12.10;99.90
38798;SHT11;24546;52.240;16.826;2022-11-04T21:09:27;12.10;99.90
38798;SHT11;24546;52.240;16.826;2022-11-04T21:14:29;12.10;99.90
38798;SHT11;24546;52.240;16.826;2022-11-04T21:19:34;12.00;99.90
38798;SHT11;24546;52.240;16.826;2022-11-04T21:24:38;12.20;99.90
38798;SHT11;24546;52.240;16.826;2022-11-04T21:29:39;12.00;99.90
38798;SHT11;24546;52.240;16.826;2022-11-04T21:34:41;12.00;99.90
38798;SHT11;24546;52.240;16.826;2022-11-04T21:39:42;12.00;99.90
38798;SHT11;24546;52.240;16.826;2022-11-04T21:44:45;11.90;99.90
38798;SHT11;24546;52.240;16.826;2022-11-04T21:49:47;12.10;99.90
38798;SHT11;24546;52.240;16.826;2022-11-04T21:54:48;12.00;99.90
38798;SHT11;24546;52.240;16.826;2022-11-04T21:59:49;12.00;99.90
38798;SHT11;24546;52.240;16.826;2022-11-04T22:04:50;11.90;99.90
38798;SHT11;24546;52.240;16.826;2022-11-04T22:09:51;12.00;99.90
38798;SHT11;24546;52.240;16.826;2022-11-04T22:14:52;12.00;99.90
38798;SHT11;24546;52.240;16.826;2022-11-04T22:19:53;12.00;99.90
38798;SHT11;24546;52.240;16.826;2022-11-04T22:24:55;12.00;99.90
38798;SHT11;24546;52.240;16.826;2022-11-04T22:30:07;12.00;99.90
38798;SHT11;24546;52.240;16.826;2022-11-04T22:35:08;12.00;99.90
38798;SHT11;24546;52.240;16.826;2022-11-04T22:40:10;11.90;99.90
38798;SHT11;24546;52.240;16.826;2022-11-04T22:45:11;11.80;99.90
38798;SHT11;24546;52.240;16.826;2022-11-04T22:50:12;11.80;99.90
38798;SHT11;24546;52.240;16.826;2022-11-04T22:55:13;11.70;99.90
38798;SHT11;24546;52.240;16.826;2022-11-04T23:00:15;11.80;99.90
38798;SHT11;24546;52.240;16.826;2022-11-04T23:05:16;11.60;99.90
38798;SHT11;24546;52.240;16.826;2022-11-04T23:10:17;11.30;99.90
38798;SHT11;24546;52.240;16.826;2022-11-04T23:15:38;11.50;99.90
38798;SHT11;24546;52.240;16.826;2022-11-04T23:20:58;11.70;99.90
38798;SHT11;24546;52.240;16.826;2022-11-04T23:26:21;11.60;99.90
38798;SHT11;24546;52.240;16.826;2022-11-04T23:31:22;11.70;99.90
38798;SHT11;24546;52.240;16.826;2022-11-04T23:36:23;11.60;99.90
38798;SHT11;24546;52.240;16.826;2022-11-04T23:41:42;11.60;99.90
38798;SHT11;24546;52.240;16.826;2022-11-04T23:47:02;11.80;99.90
38798;SHT11;24546;52.240;16.826;2022-11-04T23:52:21;11.60;99.90
38798;SHT11;24546;52.240;16.826;2022-11-04T23:57:41;11.60;99.90
